createdAt,value
2023-05-16T00:00:40.755Z,99480.30
2023-05-16T00:03:07.896Z,99481.54
2023-05-16T00:05:35.171Z,99480.34
2023-05-16T00:08:02.118Z,99480.70
2023-05-16T00:10:29.277Z,99480.71
2023-05-16T00:12:56.487Z,99479.21
2023-05-16T00:15:25.202Z,99481.05
2023-05-16T00:17:52.289Z,99484.00
2023-05-16T00:20:23.626Z,99484.73
2023-05-16T00:22:51.237Z,99485.85
2023-05-16T00:25:18.562Z,99486.30
2023-05-16T00:27:45.708Z,99488.21
2023-05-16T00:30:13.480Z,99490.25
2023-05-16T00:32:40.456Z,99488.39
2023-05-16T00:35:10.762Z,99488.87
2023-05-16T00:37:38.860Z,99491.34
2023-05-16T00:40:06.611Z,99488.78
2023-05-16T00:42:33.783Z,99491.61
2023-05-16T00:45:00.923Z,99490.59
2023-05-16T00:47:28.965Z,99491.16
2023-05-16T00:49:56.499Z,99490.44
2023-05-16T00:52:23.921Z,99491.02
2023-05-16T00:54:51.809Z,99488.52
2023-05-16T00:57:18.958Z,99485.69
2023-05-16T00:59:46.719Z,99487.88
2023-05-16T01:02:14.563Z,99489.39
2023-05-16T01:04:42.050Z,99489.30
2023-05-16T01:07:08.904Z,99490.46
2023-05-16T01:09:36.040Z,99488.77
2023-05-16T01:12:13.181Z,99485.02
2023-05-16T01:15:01.838Z,99482.71
2023-05-16T01:17:44.170Z,99483.55
2023-05-16T01:20:18.442Z,99480.58
2023-05-16T01:23:15.276Z,99475.39
2023-05-16T01:25:49.767Z,99474.87
2023-05-16T01:28:17.675Z,99474.34
2023-05-16T01:30:45.150Z,99473.21
2023-05-16T01:33:12.668Z,99474.02
2023-05-16T01:35:44.752Z,99472.13
2023-05-16T01:38:17.529Z,99470.81
2023-05-16T01:41:06.771Z,99473.55
2023-05-16T01:43:42.666Z,99471.56
2023-05-16T01:46:10.962Z,99468.48
2023-05-16T01:48:43.607Z,99472.26
2023-05-16T01:51:11.665Z,99468.45
2023-05-16T01:53:39.141Z,99466.73
2023-05-16T01:56:09.765Z,99466.80
2023-05-16T01:58:36.941Z,99463.89
2023-05-16T02:01:04.940Z,99462.31
2023-05-16T02:03:32.185Z,99462.61
2023-05-16T02:05:59.619Z,99456.56
2023-05-16T02:08:26.931Z,99459.19
2023-05-16T02:10:53.826Z,99453.69
2023-05-16T02:13:21.489Z,99455.56
2023-05-16T02:15:48.451Z,99455.32
2023-05-16T02:18:15.402Z,99457.55
2023-05-16T02:20:43.372Z,99457.42
2023-05-16T02:23:10.333Z,99459.43
2023-05-16T02:25:37.479Z,99457.14
2023-05-16T02:28:04.841Z,99455.55
2023-05-16T02:30:31.910Z,99457.06
2023-05-16T02:32:58.772Z,99452.95
2023-05-16T02:35:26.084Z,99452.64
2023-05-16T02:37:53.582Z,99454.59
2023-05-16T02:40:20.383Z,99454.87
2023-05-16T02:42:47.263Z,99455.28
2023-05-16T02:45:15.962Z,99457.75
2023-05-16T02:47:44.382Z,99459.04
2023-05-16T02:50:11.282Z,99454.70
2023-05-16T02:52:38.351Z,99457.16
2023-05-16T02:55:21.143Z,99453.83
2023-05-16T02:57:50.908Z,99455.23
2023-05-16T03:00:18.903Z,99449.59
2023-05-16T03:02:46.232Z,99447.23
2023-05-16T03:05:13.310Z,99444.98
2023-05-16T03:07:40.311Z,99449.80
2023-05-16T03:10:08.057Z,99450.12
2023-05-16T03:12:34.934Z,99450.55
2023-05-16T03:15:02.042Z,99450.41
2023-05-16T03:17:29.773Z,99449.98
2023-05-16T03:19:57.410Z,99447.23
2023-05-16T03:22:24.275Z,99447.48
2023-05-16T03:24:51.241Z,99448.64
2023-05-16T03:27:18.137Z,99445.92
2023-05-16T03:29:44.976Z,99445.15
2023-05-16T03:32:12.099Z,99445.25
2023-05-16T03:34:39.141Z,99443.33
2023-05-16T03:37:06.705Z,99442.84
2023-05-16T03:39:33.858Z,99445.80
2023-05-16T03:42:00.759Z,99448.64
2023-05-16T03:44:27.593Z,99449.53
2023-05-16T03:46:56.084Z,99454.38
2023-05-16T03:49:26.935Z,99455.34
2023-05-16T03:51:53.757Z,99456.69
2023-05-16T03:54:20.621Z,99458.17
2023-05-16T03:56:47.484Z,99459.52
2023-05-16T03:59:14.285Z,99469.66
2023-05-16T04:01:41.469Z,99471.45
2023-05-16T04:04:08.500Z,99472.42
2023-05-16T04:06:35.664Z,99473.94
2023-05-16T04:09:02.495Z,99475.55
2023-05-16T04:11:29.414Z,99480.11
2023-05-16T04:13:57.180Z,99481.31
2023-05-16T04:16:24.289Z,99481.79
2023-05-16T04:18:51.774Z,99488.02
2023-05-16T04:21:18.883Z,99492.33
2023-05-16T04:23:45.929Z,99503.21
2023-05-16T04:26:13.095Z,99503.16
2023-05-16T04:28:40.488Z,99506.13
2023-05-16T04:31:08.467Z,99509.87
2023-05-16T04:33:35.480Z,99506.48
2023-05-16T04:36:02.620Z,99509.30
2023-05-16T04:38:29.495Z,99507.83
2023-05-16T04:40:56.647Z,99508.21
2023-05-16T04:43:23.595Z,99506.67
2023-05-16T04:45:50.909Z,99506.44
2023-05-16T04:48:17.716Z,99506.98
2023-05-16T04:50:44.661Z,99508.32
2023-05-16T04:53:11.809Z,99510.05
2023-05-16T04:55:38.678Z,99509.76
2023-05-16T04:58:05.567Z,99512.61
2023-05-16T05:00:32.566Z,99510.86
2023-05-16T05:02:59.673Z,99513.55
2023-05-16T05:05:27.015Z,99515.36
2023-05-16T05:07:54.388Z,99514.34
2023-05-16T05:10:21.300Z,99515.27
2023-05-16T05:12:48.240Z,99511.96
2023-05-16T05:15:15.191Z,99515.91
2023-05-16T05:17:42.259Z,99513.81
2023-05-16T05:20:10.649Z,99512.64
2023-05-16T05:22:37.714Z,99514.67
2023-05-16T05:25:05.980Z,99512.77
2023-05-16T05:27:32.940Z,99506.86
2023-05-16T05:30:00.077Z,99504.53
2023-05-16T05:32:27.006Z,99495.21
2023-05-16T05:34:53.887Z,99492.61
2023-05-16T05:37:21.332Z,99497.41
2023-05-16T05:39:48.186Z,99497.77
2023-05-16T05:42:15.132Z,99501.33
2023-05-16T05:44:42.012Z,99502.83
2023-05-16T05:47:09.055Z,99508.67
2023-05-16T05:49:36.249Z,99514.85
2023-05-16T05:52:03.343Z,99519.66
2023-05-16T05:54:30.628Z,99519.36
2023-05-16T05:56:58.282Z,99530.28
2023-05-16T05:59:25.425Z,99533.38
2023-05-16T06:01:53.214Z,99536.05
2023-05-16T06:04:20.942Z,99538.01
2023-05-16T06:06:47.936Z,99542.19
2023-05-16T06:09:15.206Z,99541.33
2023-05-16T06:11:43.573Z,99539.45
2023-05-16T06:14:11.096Z,99541.90
2023-05-16T06:16:40.315Z,99540.48
2023-05-16T06:19:07.538Z,99539.75
2023-05-16T06:21:34.520Z,99532.45
2023-05-16T06:24:01.443Z,99525.70
2023-05-16T06:26:28.410Z,99523.61
2023-05-16T06:28:55.507Z,99520.61
2023-05-16T06:31:22.383Z,99514.82
2023-05-16T06:33:49.652Z,99513.59
2023-05-16T06:36:16.640Z,99511.43
2023-05-16T06:38:43.468Z,99506.26
2023-05-16T06:41:10.309Z,99506.95
2023-05-16T06:43:37.320Z,99505.98
2023-05-16T06:46:04.486Z,99510.59
2023-05-16T06:48:31.487Z,99507.23
2023-05-16T06:50:58.493Z,99502.86
2023-05-16T06:53:25.449Z,99501.64
2023-05-16T06:55:52.378Z,99500.70
2023-05-16T06:58:19.681Z,99489.84
2023-05-16T07:00:46.699Z,99489.25
2023-05-16T07:03:13.805Z,99494.59
2023-05-16T07:05:41.912Z,99494.17
2023-05-16T07:08:10.611Z,99490.23
2023-05-16T07:10:37.751Z,99486.64
2023-05-16T07:13:05.230Z,99486.23
2023-05-16T07:15:34.985Z,99489.46
2023-05-16T07:18:01.989Z,99491.80
2023-05-16T07:20:28.962Z,99495.02
2023-05-16T07:22:57.746Z,99493.84
2023-05-16T07:25:25.343Z,99493.59
2023-05-16T07:27:52.573Z,99501.43
2023-05-16T07:30:19.653Z,99501.11
2023-05-16T07:32:46.553Z,99502.52
2023-05-16T07:35:13.622Z,99501.70
2023-05-16T07:37:42.636Z,99507.01
2023-05-16T07:40:10.982Z,99503.95
2023-05-16T07:42:37.876Z,99509.64
2023-05-16T07:45:07.240Z,99516.02
2023-05-16T07:47:34.249Z,99522.88
2023-05-16T07:50:01.232Z,99523.05
2023-05-16T07:52:28.216Z,99523.90
2023-05-16T07:54:55.137Z,99524.66
2023-05-16T07:57:24.053Z,99524.52
2023-05-16T07:59:52.754Z,99528.46
2023-05-16T08:02:19.971Z,99531.23
2023-05-16T08:04:47.182Z,99538.77
2023-05-16T08:07:14.164Z,99541.55
2023-05-16T08:09:41.169Z,99545.27
2023-05-16T08:12:08.808Z,99547.61
2023-05-16T08:14:37.261Z,99551.09
2023-05-16T08:17:04.791Z,99553.78
2023-05-16T08:19:33.216Z,99555.49
2023-05-16T08:22:00.370Z,99555.31
2023-05-16T08:24:27.274Z,99553.84
2023-05-16T08:26:54.308Z,99556.19
2023-05-16T08:29:21.288Z,99563.55
2023-05-16T08:31:48.522Z,99563.90
2023-05-16T08:34:18.788Z,99554.63
2023-05-16T08:36:46.139Z,99553.54
2023-05-16T08:39:13.127Z,99552.38
2023-05-16T08:41:40.117Z,99552.64
2023-05-16T08:44:07.190Z,99553.45
2023-05-16T08:46:36.131Z,99555.41
2023-05-16T08:49:07.653Z,99551.52
2023-05-16T08:51:37.537Z,99546.70
2023-05-16T08:54:07.805Z,99539.19
2023-05-16T08:56:35.305Z,99535.00
2023-05-16T08:59:02.767Z,99529.82
2023-05-16T09:01:30.697Z,99524.73
2023-05-16T09:03:57.789Z,99523.05
2023-05-16T09:06:25.417Z,99519.01
2023-05-16T09:08:53.809Z,99521.02
2023-05-16T09:11:21.949Z,99528.10
2023-05-16T09:13:49.441Z,99527.70
2023-05-16T09:16:20.500Z,99530.80
2023-05-16T09:18:57.403Z,99528.34
2023-05-16T09:21:27.882Z,99532.99
2023-05-16T09:23:55.658Z,99534.42
2023-05-16T09:26:22.850Z,99536.34
2023-05-16T09:28:53.570Z,99533.43
2023-05-16T09:31:22.266Z,99532.93
2023-05-16T09:33:52.343Z,99527.84
2023-05-16T09:36:19.709Z,99532.21
2023-05-16T09:38:47.853Z,99535.03
2023-05-16T09:41:15.248Z,99536.17
2023-05-16T09:43:43.247Z,99537.23
2023-05-16T09:46:16.370Z,99539.44
2023-05-16T09:48:49.412Z,99536.98
2023-05-16T09:51:16.545Z,99537.14
2023-05-16T09:53:43.564Z,99539.14
2023-05-16T09:56:11.554Z,99540.30
2023-05-16T09:58:39.723Z,99542.52
2023-05-16T10:01:07.397Z,99541.98
2023-05-16T10:03:35.666Z,99538.67
2023-05-16T10:06:03.750Z,99536.98
2023-05-16T10:08:32.190Z,99529.77
2023-05-16T10:10:59.258Z,99531.55
2023-05-16T10:13:30.975Z,99532.41
2023-05-16T10:15:59.192Z,99535.33
2023-05-16T10:18:30.469Z,99533.23
2023-05-16T10:20:58.518Z,99529.23
2023-05-16T10:23:26.558Z,99520.44
2023-05-16T10:25:53.657Z,99521.38
2023-05-16T10:28:21.881Z,99521.00
2023-05-16T10:30:49.701Z,99517.89
2023-05-16T10:33:18.008Z,99515.58
2023-05-16T10:35:45.843Z,99518.77
2023-05-16T10:38:14.039Z,99515.76
2023-05-16T10:40:41.143Z,99517.51
2023-05-16T10:43:10.308Z,99516.35
2023-05-16T10:45:43.607Z,99517.84
2023-05-16T10:48:15.007Z,99513.83
2023-05-16T10:50:45.407Z,99514.02
2023-05-16T10:53:16.344Z,99514.31
2023-05-16T10:55:59.271Z,99518.52
2023-05-16T10:58:42.627Z,99520.13
2023-05-16T11:01:48.384Z,99519.05
2023-05-16T11:04:15.577Z,99519.03
2023-05-16T11:06:42.602Z,99518.54
2023-05-16T11:09:15.807Z,99520.68
2023-05-16T11:11:52.260Z,99520.85
2023-05-16T11:14:23.751Z,99526.24
2023-05-16T11:17:11.118Z,99522.81
2023-05-16T11:19:45.739Z,99522.52
2023-05-16T11:22:17.048Z,99521.55
2023-05-16T11:24:52.728Z,99514.80
2023-05-16T11:27:24.764Z,99511.21
2023-05-16T11:29:52.579Z,99511.02
2023-05-16T11:32:21.448Z,99514.25
2023-05-16T11:34:48.856Z,99515.54
2023-05-16T11:37:17.453Z,99516.64
2023-05-16T11:39:44.548Z,99519.95
2023-05-16T11:42:11.964Z,99522.33
2023-05-16T11:44:40.905Z,99518.23
2023-05-16T11:47:08.535Z,99521.90
2023-05-16T11:49:35.901Z,99524.95
2023-05-16T11:52:15.300Z,99525.76
2023-05-16T11:55:07.159Z,99519.98
2023-05-16T11:57:34.328Z,99515.34
2023-05-16T12:00:21.508Z,99518.58
2023-05-16T12:02:50.018Z,99518.09
2023-05-16T12:05:17.863Z,99518.89
2023-05-16T12:07:45.180Z,99521.85
2023-05-16T12:10:14.527Z,99513.85
2023-05-16T12:12:42.843Z,99515.30
2023-05-16T12:15:10.071Z,99514.55
2023-05-16T12:17:37.904Z,99515.84
2023-05-16T12:20:11.813Z,99518.33
2023-05-16T12:22:42.713Z,99522.20
2023-05-16T12:25:44.387Z,99523.55
2023-05-16T12:28:13.055Z,99524.39
2023-05-16T12:30:44.450Z,99527.86
2023-05-16T12:33:13.179Z,99529.38
2023-05-16T12:35:44.816Z,99530.21
2023-05-16T12:38:16.209Z,99529.13
2023-05-16T12:40:43.850Z,99529.09
2023-05-16T12:43:15.213Z,99527.42
2023-05-16T12:45:43.484Z,99525.59
2023-05-16T12:48:14.386Z,99523.63
2023-05-16T12:50:42.145Z,99522.38
2023-05-16T12:53:18.051Z,99526.27
2023-05-16T12:55:45.263Z,99519.95
2023-05-16T12:58:14.962Z,99519.29
2023-05-16T13:00:42.013Z,99521.80
2023-05-16T13:03:09.233Z,99518.95
2023-05-16T13:05:39.064Z,99518.88
2023-05-16T13:08:06.412Z,99519.36
2023-05-16T13:10:33.534Z,99514.75
2023-05-16T13:13:00.604Z,99514.75
2023-05-16T13:15:28.194Z,99509.04
2023-05-16T13:17:55.815Z,99511.45
2023-05-16T13:20:22.823Z,99511.95
2023-05-16T13:22:49.953Z,99514.95
2023-05-16T13:25:17.336Z,99516.55
2023-05-16T13:27:44.595Z,99512.36
2023-05-16T13:30:12.085Z,99511.86
2023-05-16T13:32:39.959Z,99515.64
2023-05-16T13:35:07.375Z,99511.77
2023-05-16T13:37:34.349Z,99505.51
2023-05-16T13:40:01.518Z,99508.80
2023-05-16T13:42:28.832Z,99506.37
2023-05-16T13:44:55.835Z,99504.14
2023-05-16T13:47:22.854Z,99500.02
2023-05-16T13:49:49.941Z,99504.64
2023-05-16T13:52:17.093Z,99505.07
2023-05-16T13:54:44.116Z,99503.91
2023-05-16T13:57:11.814Z,99501.03
2023-05-16T14:00:10.825Z,99502.23
2023-05-16T14:02:26.435Z,99505.31
2023-05-16T14:04:54.034Z,99505.43
2023-05-16T14:07:21.340Z,99504.64
2023-05-16T14:09:48.298Z,99511.80
2023-05-16T14:12:15.287Z,99505.80
2023-05-16T14:14:42.311Z,99508.52
2023-05-16T14:17:09.400Z,99506.39
2023-05-16T14:19:36.608Z,99508.49
2023-05-16T14:22:03.824Z,99511.54
2023-05-16T14:24:30.775Z,99508.52
2023-05-16T14:26:57.969Z,99513.86
2023-05-16T14:29:25.967Z,99513.23
2023-05-16T14:31:53.386Z,99512.65
2023-05-16T14:34:20.790Z,99511.94
2023-05-16T14:36:48.103Z,99512.84
2023-05-16T14:39:15.809Z,99508.98
2023-05-16T14:41:42.810Z,99504.23
2023-05-16T14:44:09.969Z,99506.13
2023-05-16T14:46:37.001Z,99510.39
2023-05-16T14:49:04.205Z,99512.54
2023-05-16T14:51:32.582Z,99509.35
2023-05-16T14:53:59.548Z,99511.16
2023-05-16T14:56:28.205Z,99509.96
2023-05-16T14:58:55.341Z,99512.88
2023-05-16T15:01:22.914Z,99510.78
2023-05-16T15:03:56.006Z,99510.08
2023-05-16T15:06:24.746Z,99508.92
2023-05-16T15:08:52.121Z,99507.73
2023-05-16T15:11:19.733Z,99504.83
2023-05-16T15:13:46.984Z,99503.13
2023-05-16T15:16:14.269Z,99506.37
2023-05-16T15:18:42.058Z,99506.72
2023-05-16T15:21:09.376Z,99510.77
2023-05-16T15:23:36.908Z,99510.11
2023-05-16T15:26:04.899Z,99515.21
2023-05-16T15:28:31.989Z,99517.48
2023-05-16T15:30:59.147Z,99515.14
2023-05-16T15:33:26.614Z,99511.86
2023-05-16T15:35:53.955Z,99512.52
2023-05-16T15:38:20.998Z,99513.41
2023-05-16T15:40:50.796Z,99508.55
2023-05-16T15:43:25.444Z,99505.71
2023-05-16T15:45:52.537Z,99506.13
2023-05-16T15:48:19.765Z,99505.42
2023-05-16T15:50:46.735Z,99504.73
2023-05-16T15:53:13.737Z,99507.57
2023-05-16T15:55:41.175Z,99507.35
2023-05-16T15:58:08.210Z,99510.29
2023-05-16T16:00:35.231Z,99508.17
2023-05-16T16:03:02.343Z,99509.04
2023-05-16T16:05:29.905Z,99506.96
2023-05-16T16:07:57.097Z,99506.94
2023-05-16T16:10:24.369Z,99508.70
2023-05-16T16:13:01.753Z,99508.95
2023-05-16T16:15:32.608Z,99506.33
2023-05-16T16:18:00.709Z,99501.45
2023-05-16T16:20:28.024Z,99505.48
2023-05-16T16:22:55.031Z,99505.33
2023-05-16T16:25:22.085Z,99504.36
2023-05-16T16:27:49.163Z,99510.48
2023-05-16T16:30:16.080Z,99514.21
2023-05-16T16:32:43.112Z,99509.39
2023-05-16T16:35:10.268Z,99506.48
2023-05-16T16:37:37.304Z,99506.69
2023-05-16T16:40:05.285Z,99507.67
2023-05-16T16:42:32.444Z,99505.97
2023-05-16T16:44:59.599Z,99506.13
2023-05-16T16:47:26.663Z,99506.41
2023-05-16T16:49:53.672Z,99509.77
2023-05-16T16:52:20.766Z,99509.33
2023-05-16T16:54:47.918Z,99513.36
2023-05-16T16:57:15.067Z,99514.65
2023-05-16T16:59:42.330Z,99514.42
2023-05-16T17:02:10.336Z,99512.72
2023-05-16T17:04:37.358Z,99510.20
2023-05-16T17:07:04.918Z,99511.66
2023-05-16T17:09:32.486Z,99507.13
2023-05-16T17:12:04.749Z,99509.73
2023-05-16T17:14:31.737Z,99515.17
2023-05-16T17:16:58.735Z,99511.69
2023-05-16T17:19:25.978Z,99513.59
2023-05-16T17:21:53.278Z,99511.60
2023-05-16T17:24:20.234Z,99513.52
2023-05-16T17:26:47.493Z,99512.26
2023-05-16T17:29:14.543Z,99508.90
2023-05-16T17:31:41.695Z,99509.36
2023-05-16T17:34:08.758Z,99513.24
2023-05-16T17:36:37.240Z,99512.45
2023-05-16T17:39:08.395Z,99514.30
2023-05-16T17:41:35.871Z,99511.83
2023-05-16T17:44:03.213Z,99519.52
2023-05-16T17:46:30.367Z,99523.08
2023-05-16T17:48:57.499Z,99523.11
2023-05-16T17:51:24.674Z,99523.86
2023-05-16T17:53:52.664Z,99523.31
2023-05-16T17:56:19.825Z,99524.70
2023-05-16T17:58:46.791Z,99521.02
2023-05-16T18:01:13.923Z,99524.77
2023-05-16T18:03:43.877Z,99524.98
2023-05-16T18:06:12.170Z,99524.06
2023-05-16T18:08:39.300Z,99525.59
2023-05-16T18:11:07.560Z,99526.65
2023-05-16T18:13:34.815Z,99525.37
2023-05-16T18:16:02.687Z,99526.73
2023-05-16T18:18:29.673Z,99525.63
2023-05-16T18:20:57.109Z,99523.07
2023-05-16T18:23:25.378Z,99523.48
2023-05-16T18:25:53.059Z,99527.05
2023-05-16T18:28:21.389Z,99526.13
2023-05-16T18:30:49.613Z,99524.73
2023-05-16T18:33:17.692Z,99526.82
2023-05-16T18:35:44.950Z,99525.84
2023-05-16T18:38:20.220Z,99529.52
2023-05-16T18:40:56.127Z,99532.48
2023-05-16T18:43:23.399Z,99535.44
2023-05-16T18:45:50.669Z,99536.39
2023-05-16T18:48:20.885Z,99541.45
2023-05-16T18:50:48.046Z,99539.74
2023-05-16T18:53:15.407Z,99539.63
2023-05-16T18:55:42.561Z,99537.64
2023-05-16T18:58:09.716Z,99540.58
2023-05-16T19:00:36.761Z,99536.98
2023-05-16T19:03:06.602Z,99537.31
2023-05-16T19:05:34.780Z,99540.20
2023-05-16T19:08:02.073Z,99537.45
2023-05-16T19:10:29.690Z,99534.15
2023-05-16T19:12:57.153Z,99534.43
2023-05-16T19:15:24.311Z,99532.51
2023-05-16T19:17:53.613Z,99532.37
2023-05-16T19:20:21.731Z,99535.66
2023-05-16T19:22:48.784Z,99535.27
2023-05-16T19:25:15.707Z,99534.61
2023-05-16T19:27:43.164Z,99532.48
2023-05-16T19:30:13.127Z,99531.28
2023-05-16T19:32:40.261Z,99531.19
2023-05-16T19:35:08.065Z,99532.02
2023-05-16T19:37:35.391Z,99532.33
2023-05-16T19:40:06.012Z,99531.53
2023-05-16T19:42:33.156Z,99533.36
2023-05-16T19:45:00.213Z,99535.32
2023-05-16T19:47:27.392Z,99535.34
2023-05-16T19:49:54.527Z,99533.48
2023-05-16T19:52:21.691Z,99531.63
2023-05-16T19:54:48.733Z,99534.59
2023-05-16T19:57:15.793Z,99532.89
2023-05-16T19:59:42.834Z,99528.86
2023-05-16T20:02:09.890Z,99528.55
2023-05-16T20:04:37.090Z,99530.34
2023-05-16T20:07:04.314Z,99528.43
2023-05-16T20:09:31.935Z,99525.49
2023-05-16T20:11:59.076Z,99526.09
2023-05-16T20:14:26.390Z,99524.60
2023-05-16T20:16:53.652Z,99523.96
2023-05-16T20:19:20.976Z,99526.85
2023-05-16T20:21:48.164Z,99526.89
2023-05-16T20:24:15.630Z,99531.20
2023-05-16T20:26:42.786Z,99533.91
2023-05-16T20:29:11.331Z,99531.16
2023-05-16T20:31:38.426Z,99532.90
2023-05-16T20:34:05.651Z,99532.09
2023-05-16T20:36:32.943Z,99530.30
2023-05-16T20:38:59.996Z,99525.99
2023-05-16T20:41:27.050Z,99521.50
2023-05-16T20:43:54.741Z,99518.55
2023-05-16T20:46:22.105Z,99520.90
2023-05-16T20:48:49.292Z,99517.96
2023-05-16T20:51:17.312Z,99519.26
2023-05-16T20:53:44.370Z,99516.27
2023-05-16T20:56:11.420Z,99515.80
2023-05-16T20:58:42.312Z,99514.75
2023-05-16T21:01:09.727Z,99515.17
2023-05-16T21:03:37.366Z,99513.15
2023-05-16T21:06:04.855Z,99513.41
2023-05-16T21:08:32.015Z,99512.46
2023-05-16T21:10:59.172Z,99511.39
2023-05-16T21:13:26.533Z,99506.59
2023-05-16T21:15:53.587Z,99504.84
2023-05-16T21:18:20.899Z,99505.05
2023-05-16T21:20:48.103Z,99502.80
2023-05-16T21:23:15.357Z,99500.17
2023-05-16T21:25:42.371Z,99501.81
2023-05-16T21:28:09.471Z,99499.23
2023-05-16T21:30:36.429Z,99502.33
2023-05-16T21:33:03.392Z,99500.33
2023-05-16T21:35:30.699Z,99498.46
2023-05-16T21:37:57.682Z,99499.40
2023-05-16T21:40:26.054Z,99502.00
2023-05-16T21:42:53.325Z,99497.87
2023-05-16T21:45:22.123Z,99497.00
2023-05-16T21:47:49.226Z,99496.77
2023-05-16T21:50:16.339Z,99499.13
2023-05-16T21:52:43.493Z,99494.45
2023-05-16T21:55:10.649Z,99491.90
2023-05-16T21:57:37.738Z,99491.79
2023-05-16T22:00:09.414Z,99493.65
2023-05-16T22:02:36.817Z,99492.96
2023-05-16T22:05:04.593Z,99492.38
2023-05-16T22:07:31.998Z,99488.41
2023-05-16T22:09:59.114Z,99489.44
2023-05-16T22:12:27.175Z,99492.52
2023-05-16T22:14:54.472Z,99493.17
2023-05-16T22:17:21.607Z,99494.15
2023-05-16T22:19:48.916Z,99494.94
2023-05-16T22:22:16.051Z,99496.67
2023-05-16T22:24:42.938Z,99499.42
2023-05-16T22:27:10.321Z,99501.52
2023-05-16T22:29:40.119Z,99501.95
2023-05-16T22:32:07.961Z,99500.42
2023-05-16T22:34:36.599Z,99503.55
2023-05-16T22:37:03.631Z,99502.70
2023-05-16T22:39:30.713Z,99502.95
2023-05-16T22:41:57.601Z,99510.05
2023-05-16T22:44:24.491Z,99508.31
2023-05-16T22:46:51.459Z,99508.77
2023-05-16T22:49:19.089Z,99510.95
2023-05-16T22:51:46.282Z,99506.95
2023-05-16T22:54:13.553Z,99507.61
2023-05-16T22:56:40.749Z,99507.02
2023-05-16T22:59:07.860Z,99507.30
2023-05-16T23:01:35.577Z,99508.30
2023-05-16T23:04:02.644Z,99510.04
2023-05-16T23:06:29.935Z,99511.38
2023-05-16T23:08:56.837Z,99508.13
2023-05-16T23:11:23.757Z,99507.42
2023-05-16T23:13:50.920Z,99511.59
2023-05-16T23:16:18.247Z,99511.98
2023-05-16T23:18:45.204Z,99509.98
2023-05-16T23:21:12.365Z,99508.71
2023-05-16T23:23:39.221Z,99507.00
2023-05-16T23:26:06.079Z,99508.70
2023-05-16T23:28:33.113Z,99507.03
2023-05-16T23:30:59.972Z,99509.41
2023-05-16T23:33:26.872Z,99509.09
2023-05-16T23:35:53.812Z,99508.14
2023-05-16T23:38:22.137Z,99508.94
2023-05-16T23:40:48.998Z,99508.63
2023-05-16T23:43:16.052Z,99511.11
2023-05-16T23:45:43.098Z,99512.11
2023-05-16T23:48:10.069Z,99512.14
2023-05-16T23:50:37.411Z,99513.55
2023-05-16T23:53:04.573Z,99517.79
2023-05-16T23:55:31.620Z,99517.28
2023-05-16T23:57:58.614Z,99518.78
